sensor_id;sensor_type;location;lat;lon;timestamp;P1;durP1;ratioP1;P2;durP2;ratioP2
35743;SDS011;21867;52.012;4.324;2023-02-12T00:00:05;13.43;;;7.53;;
35743;SDS011;21867;52.012;4.324;2023-02-12T00:02:40;11.33;;;7.67;;
35743;SDS011;21867;52.012;4.324;2023-02-12T00:05:07;10.87;;;6.97;;
35743;SDS011;21867;52.012;4.324;2023-02-12T00:07:34;8.30;;;6.80;;
35743;SDS011;21867;52.012;4.324;2023-02-12T00:10:03;9.10;;;7.07;;
35743;SDS011;21867;52.012;4.324;2023-02-12T00:12:31;11.43;;;6.47;;
35743;SDS011;21867;52.012;4.324;2023-02-12T00:14:58;8.40;;;6.13;;
35743;SDS011;21867;52.012;4.324;2023-02-12T00:17:26;8.97;;;7.33;;
35743;SDS011;21867;52.012;4.324;2023-02-12T00:19:53;9.33;;;6.00;;
35743;SDS011;21867;52.012;4.324;2023-02-12T00:22:21;8.23;;;6.43;;
35743;SDS011;21867;52.012;4.324;2023-02-12T00:24:48;8.63;;;5.93;;
35743;SDS011;21867;52.012;4.324;2023-02-12T00:27:17;8.90;;;6.50;;
35743;SDS011;21867;52.012;4.324;2023-02-12T00:29:44;9.03;;;5.63;;
35743;SDS011;21867;52.012;4.324;2023-02-12T00:32:29;6.93;;;5.10;;
35743;SDS011;21867;52.012;4.324;2023-02-12T00:34:57;6.23;;;5.13;;
35743;SDS011;21867;52.012;4.324;2023-02-12T00:37:24;6.23;;;4.73;;
35743;SDS011;21867;52.012;4.324;2023-02-12T00:39:52;4.47;;;4.07;;
35743;SDS011;21867;52.012;4.324;2023-02-12T00:48:37;6.40;;;5.30;;
35743;SDS011;21867;52.012;4.324;2023-02-12T00:51:05;6.23;;;4.40;;
35743;SDS011;21867;52.012;4.324;2023-02-12T00:53:32;5.73;;;5.17;;
35743;SDS011;21867;52.012;4.324;2023-02-12T00:56:00;5.63;;;5.23;;
35743;SDS011;21867;52.012;4.324;2023-02-12T00:58:27;5.37;;;4.60;;
35743;SDS011;21867;52.012;4.324;2023-02-12T01:00:54;6.97;;;4.80;;
35743;SDS011;21867;52.012;4.324;2023-02-12T01:03:22;9.67;;;5.57;;
35743;SDS011;21867;52.012;4.324;2023-02-12T01:05:51;7.60;;;5.13;;
35743;SDS011;21867;52.012;4.324;2023-02-12T01:08:20;6.20;;;5.00;;
35743;SDS011;21867;52.012;4.324;2023-02-12T01:10:53;6.23;;;4.97;;
35743;SDS011;21867;52.012;4.324;2023-02-12T01:13:21;5.43;;;4.70;;
35743;SDS011;21867;52.012;4.324;2023-02-12T01:15:48;7.20;;;5.20;;
35743;SDS011;21867;52.012;4.324;2023-02-12T01:18:20;7.73;;;4.77;;
35743;SDS011;21867;52.012;4.324;2023-02-12T01:20:47;6.10;;;4.00;;
35743;SDS011;21867;52.012;4.324;2023-02-12T01:23:16;6.17;;;4.53;;
35743;SDS011;21867;52.012;4.324;2023-02-12T01:25:43;5.00;;;4.50;;
35743;SDS011;21867;52.012;4.324;2023-02-12T01:31:11;7.73;;;4.40;;
35743;SDS011;21867;52.012;4.324;2023-02-12T01:33:39;7.00;;;4.87;;
35743;SDS011;21867;52.012;4.324;2023-02-12T01:36:07;3.90;;;3.50;;
35743;SDS011;21867;52.012;4.324;2023-02-12T01:38:36;6.10;;;4.53;;
35743;SDS011;21867;52.012;4.324;2023-02-12T01:41:04;5.43;;;4.23;;
35743;SDS011;21867;52.012;4.324;2023-02-12T01:43:32;3.97;;;3.67;;
35743;SDS011;21867;52.012;4.324;2023-02-12T01:46:09;6.27;;;3.83;;
35743;SDS011;21867;52.012;4.324;2023-02-12T01:48:37;7.50;;;3.37;;
35743;SDS011;21867;52.012;4.324;2023-02-12T01:51:09;5.27;;;3.77;;
35743;SDS011;21867;52.012;4.324;2023-02-12T01:53:39;9.03;;;3.90;;
35743;SDS011;21867;52.012;4.324;2023-02-12T01:56:07;8.13;;;4.50;;
35743;SDS011;21867;52.012;4.324;2023-02-12T01:58:50;5.07;;;3.53;;
35743;SDS011;21867;52.012;4.324;2023-02-12T02:01:42;4.83;;;3.63;;
35743;SDS011;21867;52.012;4.324;2023-02-12T02:04:11;5.03;;;3.70;;
35743;SDS011;21867;52.012;4.324;2023-02-12T02:06:43;4.77;;;3.63;;
35743;SDS011;21867;52.012;4.324;2023-02-12T02:09:15;3.83;;;3.40;;
35743;SDS011;21867;52.012;4.324;2023-02-12T02:11:42;5.50;;;3.40;;
35743;SDS011;21867;52.012;4.324;2023-02-12T02:14:10;4.90;;;2.67;;
35743;SDS011;21867;52.012;4.324;2023-02-12T02:19:30;3.37;;;2.70;;
35743;SDS011;21867;52.012;4.324;2023-02-12T02:22:06;4.90;;;3.50;;
35743;SDS011;21867;52.012;4.324;2023-02-12T02:27:25;2.47;;;2.33;;
35743;SDS011;21867;52.012;4.324;2023-02-12T02:38:59;2.47;;;2.27;;
35743;SDS011;21867;52.012;4.324;2023-02-12T02:41:30;2.40;;;2.23;;
35743;SDS011;21867;52.012;4.324;2023-02-12T02:44:00;2.43;;;2.27;;
35743;SDS011;21867;52.012;4.324;2023-02-12T02:46:29;2.70;;;2.50;;
35743;SDS011;21867;52.012;4.324;2023-02-12T02:48:57;3.40;;;2.60;;
35743;SDS011;21867;52.012;4.324;2023-02-12T02:51:42;2.67;;;2.47;;
35743;SDS011;21867;52.012;4.324;2023-02-12T02:54:13;3.50;;;3.10;;
35743;SDS011;21867;52.012;4.324;2023-02-12T02:56:43;3.50;;;3.20;;
35743;SDS011;21867;52.012;4.324;2023-02-12T02:59:11;3.77;;;3.20;;
35743;SDS011;21867;52.012;4.324;2023-02-12T03:05:28;3.50;;;3.17;;
35743;SDS011;21867;52.012;4.324;2023-02-12T03:07:58;3.37;;;3.17;;
35743;SDS011;21867;52.012;4.324;2023-02-12T03:10:28;3.50;;;3.20;;
35743;SDS011;21867;52.012;4.324;2023-02-12T03:12:57;5.80;;;2.87;;
35743;SDS011;21867;52.012;4.324;2023-02-12T03:15:26;2.60;;;2.50;;
35743;SDS011;21867;52.012;4.324;2023-02-12T03:17:56;2.87;;;2.60;;
35743;SDS011;21867;52.012;4.324;2023-02-12T03:23:14;3.10;;;2.90;;
35743;SDS011;21867;52.012;4.324;2023-02-12T03:25:47;3.43;;;2.93;;
35743;SDS011;21867;52.012;4.324;2023-02-12T03:28:16;2.97;;;2.57;;
35743;SDS011;21867;52.012;4.324;2023-02-12T03:37:02;4.73;;;3.20;;
35743;SDS011;21867;52.012;4.324;2023-02-12T03:39:34;2.70;;;2.50;;
35743;SDS011;21867;52.012;4.324;2023-02-12T03:42:08;4.63;;;3.17;;
35743;SDS011;21867;52.012;4.324;2023-02-12T03:44:40;3.50;;;3.20;;
35743;SDS011;21867;52.012;4.324;2023-02-12T03:47:12;3.20;;;3.00;;
35743;SDS011;21867;52.012;4.324;2023-02-12T03:52:32;3.23;;;2.93;;
35743;SDS011;21867;52.012;4.324;2023-02-12T03:54:59;7.37;;;3.53;;
35743;SDS011;21867;52.012;4.324;2023-02-12T03:57:29;4.03;;;3.67;;
35743;SDS011;21867;52.012;4.324;2023-02-12T04:06:22;3.87;;;3.57;;
35743;SDS011;21867;52.012;4.324;2023-02-12T04:08:50;5.37;;;2.63;;
35743;SDS011;21867;52.012;4.324;2023-02-12T04:11:20;3.50;;;2.90;;
35743;SDS011;21867;52.012;4.324;2023-02-12T04:13:52;2.97;;;2.77;;
35743;SDS011;21867;52.012;4.324;2023-02-12T04:16:26;3.80;;;3.27;;
35743;SDS011;21867;52.012;4.324;2023-02-12T04:19:12;4.60;;;3.63;;
35743;SDS011;21867;52.012;4.324;2023-02-12T04:21:43;4.17;;;3.77;;
35743;SDS011;21867;52.012;4.324;2023-02-12T04:24:16;3.10;;;2.90;;
35743;SDS011;21867;52.012;4.324;2023-02-12T04:26:47;3.80;;;2.70;;
35743;SDS011;21867;52.012;4.324;2023-02-12T04:29:27;2.87;;;2.67;;
35743;SDS011;21867;52.012;4.324;2023-02-12T04:35:30;5.20;;;3.60;;
35743;SDS011;21867;52.012;4.324;2023-02-12T04:37:59;6.07;;;3.30;;
35743;SDS011;21867;52.012;4.324;2023-02-12T04:40:28;3.53;;;3.33;;
35743;SDS011;21867;52.012;4.324;2023-02-12T04:42:55;4.10;;;3.00;;
35743;SDS011;21867;52.012;4.324;2023-02-12T04:45:25;3.47;;;3.17;;
35743;SDS011;21867;52.012;4.324;2023-02-12T04:47:52;3.63;;;3.33;;
35743;SDS011;21867;52.012;4.324;2023-02-12T04:50:23;4.00;;;3.10;;
35743;SDS011;21867;52.012;4.324;2023-02-12T04:52:51;3.77;;;3.30;;
35743;SDS011;21867;52.012;4.324;2023-02-12T04:55:18;3.77;;;3.47;;
35743;SDS011;21867;52.012;4.324;2023-02-12T04:57:46;3.47;;;3.20;;
35743;SDS011;21867;52.012;4.324;2023-02-12T05:00:27;4.07;;;3.13;;
35743;SDS011;21867;52.012;4.324;2023-02-12T05:03:25;3.00;;;2.80;;
35743;SDS011;21867;52.012;4.324;2023-02-12T05:05:52;3.57;;;3.30;;
35743;SDS011;21867;52.012;4.324;2023-02-12T05:08:20;4.50;;;4.17;;
35743;SDS011;21867;52.012;4.324;2023-02-12T05:10:47;4.37;;;3.40;;
35743;SDS011;21867;52.012;4.324;2023-02-12T05:13:15;3.43;;;3.23;;
35743;SDS011;21867;52.012;4.324;2023-02-12T05:15:43;3.33;;;3.10;;
35743;SDS011;21867;52.012;4.324;2023-02-12T05:21:00;7.07;;;3.47;;
35743;SDS011;21867;52.012;4.324;2023-02-12T05:23:29;3.50;;;3.20;;
35743;SDS011;21867;52.012;4.324;2023-02-12T05:25:57;3.40;;;3.20;;
35743;SDS011;21867;52.012;4.324;2023-02-12T05:35:36;5.77;;;4.33;;
35743;SDS011;21867;52.012;4.324;2023-02-12T05:38:03;5.03;;;4.53;;
35743;SDS011;21867;52.012;4.324;2023-02-12T05:40:31;4.77;;;4.37;;
35743;SDS011;21867;52.012;4.324;2023-02-12T05:42:58;5.00;;;4.60;;
35743;SDS011;21867;52.012;4.324;2023-02-12T05:45:25;5.87;;;5.40;;
35743;SDS011;21867;52.012;4.324;2023-02-12T05:50:36;6.43;;;5.30;;
35743;SDS011;21867;52.012;4.324;2023-02-12T05:53:06;3.83;;;3.53;;
35743;SDS011;21867;52.012;4.324;2023-02-12T05:55:34;6.70;;;6.03;;
35743;SDS011;21867;52.012;4.324;2023-02-12T05:58:16;6.47;;;5.97;;
35743;SDS011;21867;52.012;4.324;2023-02-12T06:04:31;6.73;;;6.13;;
35743;SDS011;21867;52.012;4.324;2023-02-12T06:07:00;7.17;;;6.53;;
35743;SDS011;21867;52.012;4.324;2023-02-12T06:09:27;7.00;;;6.43;;
35743;SDS011;21867;52.012;4.324;2023-02-12T06:11:54;7.50;;;6.80;;
35743;SDS011;21867;52.012;4.324;2023-02-12T06:14:21;5.97;;;5.50;;
35743;SDS011;21867;52.012;4.324;2023-02-12T06:16:49;6.37;;;5.77;;
35743;SDS011;21867;52.012;4.324;2023-02-12T06:19:17;6.13;;;5.63;;
35743;SDS011;21867;52.012;4.324;2023-02-12T06:21:45;6.63;;;6.07;;
35743;SDS011;21867;52.012;4.324;2023-02-12T06:24:14;6.40;;;5.80;;
35743;SDS011;21867;52.012;4.324;2023-02-12T06:26:42;7.83;;;7.03;;
35743;SDS011;21867;52.012;4.324;2023-02-12T06:29:09;8.70;;;7.47;;
35743;SDS011;21867;52.012;4.324;2023-02-12T06:31:36;9.80;;;6.33;;
35743;SDS011;21867;52.012;4.324;2023-02-12T06:37:03;7.23;;;6.53;;
35743;SDS011;21867;52.012;4.324;2023-02-12T06:39:47;6.70;;;5.90;;
35743;SDS011;21867;52.012;4.324;2023-02-12T06:42:15;6.90;;;6.07;;
35743;SDS011;21867;52.012;4.324;2023-02-12T06:44:42;6.77;;;6.03;;
35743;SDS011;21867;52.012;4.324;2023-02-12T06:47:09;7.63;;;5.63;;
35743;SDS011;21867;52.012;4.324;2023-02-12T06:49:49;7.40;;;6.20;;
35743;SDS011;21867;52.012;4.324;2023-02-12T06:52:16;6.70;;;5.97;;
35743;SDS011;21867;52.012;4.324;2023-02-12T06:54:44;9.37;;;6.70;;
35743;SDS011;21867;52.012;4.324;2023-02-12T06:57:12;10.40;;;6.57;;
35743;SDS011;21867;52.012;4.324;2023-02-12T06:59:40;9.63;;;6.97;;
35743;SDS011;21867;52.012;4.324;2023-02-12T07:02:08;8.67;;;7.20;;
35743;SDS011;21867;52.012;4.324;2023-02-12T07:04:36;6.67;;;6.17;;
35743;SDS011;21867;52.012;4.324;2023-02-12T07:07:04;9.77;;;6.20;;
35743;SDS011;21867;52.012;4.324;2023-02-12T07:09:31;8.93;;;7.00;;
35743;SDS011;21867;52.012;4.324;2023-02-12T07:11:59;7.43;;;6.73;;
35743;SDS011;21867;52.012;4.324;2023-02-12T07:20:49;9.17;;;8.10;;
35743;SDS011;21867;52.012;4.324;2023-02-12T07:23:17;9.63;;;7.73;;
35743;SDS011;21867;52.012;4.324;2023-02-12T07:25:52;12.53;;;7.60;;
35743;SDS011;21867;52.012;4.324;2023-02-12T07:28:21;9.00;;;8.17;;
35743;SDS011;21867;52.012;4.324;2023-02-12T07:30:48;8.33;;;7.60;;
35743;SDS011;21867;52.012;4.324;2023-02-12T07:33:16;10.63;;;8.13;;
35743;SDS011;21867;52.012;4.324;2023-02-12T07:35:43;9.10;;;7.90;;
35743;SDS011;21867;52.012;4.324;2023-02-12T07:38:13;8.53;;;7.83;;
35743;SDS011;21867;52.012;4.324;2023-02-12T07:40:40;9.67;;;8.67;;
35743;SDS011;21867;52.012;4.324;2023-02-12T07:43:08;9.03;;;8.13;;
35743;SDS011;21867;52.012;4.324;2023-02-12T07:45:37;14.20;;;8.80;;
35743;SDS011;21867;52.012;4.324;2023-02-12T07:54:27;10.17;;;8.77;;
35743;SDS011;21867;52.012;4.324;2023-02-12T07:56:55;9.47;;;8.17;;
35743;SDS011;21867;52.012;4.324;2023-02-12T07:59:34;9.90;;;9.00;;
35743;SDS011;21867;52.012;4.324;2023-02-12T08:04:54;8.50;;;7.63;;
35743;SDS011;21867;52.012;4.324;2023-02-12T08:07:22;9.87;;;8.87;;
35743;SDS011;21867;52.012;4.324;2023-02-12T08:09:51;7.73;;;7.03;;
35743;SDS011;21867;52.012;4.324;2023-02-12T08:12:18;15.73;;;8.77;;
35743;SDS011;21867;52.012;4.324;2023-02-12T08:14:46;10.07;;;9.03;;
35743;SDS011;21867;52.012;4.324;2023-02-12T08:17:13;10.03;;;9.13;;
35743;SDS011;21867;52.012;4.324;2023-02-12T08:19:40;11.47;;;9.93;;
35743;SDS011;21867;52.012;4.324;2023-02-12T08:22:07;12.83;;;9.03;;
35743;SDS011;21867;52.012;4.324;2023-02-12T08:24:35;14.57;;;9.83;;
35743;SDS011;21867;52.012;4.324;2023-02-12T08:27:03;11.00;;;9.47;;
35743;SDS011;21867;52.012;4.324;2023-02-12T08:29:31;10.47;;;9.47;;
35743;SDS011;21867;52.012;4.324;2023-02-12T08:31:59;10.53;;;9.50;;
35743;SDS011;21867;52.012;4.324;2023-02-12T08:34:27;12.00;;;9.10;;
35743;SDS011;21867;52.012;4.324;2023-02-12T08:36:55;12.43;;;8.97;;
35743;SDS011;21867;52.012;4.324;2023-02-12T08:39:23;9.50;;;8.50;;
35743;SDS011;21867;52.012;4.324;2023-02-12T08:41:52;11.00;;;8.97;;
35743;SDS011;21867;52.012;4.324;2023-02-12T08:44:21;9.57;;;8.03;;
35743;SDS011;21867;52.012;4.324;2023-02-12T08:46:49;12.17;;;8.57;;
35743;SDS011;21867;52.012;4.324;2023-02-12T08:49:17;11.80;;;10.63;;
35743;SDS011;21867;52.012;4.324;2023-02-12T08:51:45;15.13;;;10.70;;
35743;SDS011;21867;52.012;4.324;2023-02-12T08:54:13;14.67;;;11.13;;
35743;SDS011;21867;52.012;4.324;2023-02-12T08:56:40;12.80;;;10.43;;
35743;SDS011;21867;52.012;4.324;2023-02-12T08:59:09;11.47;;;9.80;;
35743;SDS011;21867;52.012;4.324;2023-02-12T09:01:38;11.27;;;10.07;;
35743;SDS011;21867;52.012;4.324;2023-02-12T09:04:05;11.60;;;10.40;;
35743;SDS011;21867;52.012;4.324;2023-02-12T09:06:34;11.10;;;10.00;;
35743;SDS011;21867;52.012;4.324;2023-02-12T09:09:01;15.47;;;10.30;;
35743;SDS011;21867;52.012;4.324;2023-02-12T09:11:29;13.07;;;9.53;;
35743;SDS011;21867;52.012;4.324;2023-02-12T09:13:57;13.20;;;10.50;;
35743;SDS011;21867;52.012;4.324;2023-02-12T09:16:24;14.80;;;10.47;;
35743;SDS011;21867;52.012;4.324;2023-02-12T09:18:54;11.13;;;9.97;;
35743;SDS011;21867;52.012;4.324;2023-02-12T09:21:21;9.53;;;8.63;;
35743;SDS011;21867;52.012;4.324;2023-02-12T09:23:49;13.20;;;9.60;;
35743;SDS011;21867;52.012;4.324;2023-02-12T09:26:18;10.97;;;9.43;;
35743;SDS011;21867;52.012;4.324;2023-02-12T09:28:46;10.27;;;9.07;;
35743;SDS011;21867;52.012;4.324;2023-02-12T09:31:15;12.07;;;7.43;;
35743;SDS011;21867;52.012;4.324;2023-02-12T09:33:42;14.77;;;9.83;;
35743;SDS011;21867;52.012;4.324;2023-02-12T09:36:12;10.27;;;9.00;;
35743;SDS011;21867;52.012;4.324;2023-02-12T09:38:41;10.47;;;8.90;;
35743;SDS011;21867;52.012;4.324;2023-02-12T09:41:22;10.87;;;8.57;;
35743;SDS011;21867;52.012;4.324;2023-02-12T09:43:55;10.70;;;8.40;;
35743;SDS011;21867;52.012;4.324;2023-02-12T09:46:26;8.87;;;7.97;;
35743;SDS011;21867;52.012;4.324;2023-02-12T09:48:56;10.70;;;9.53;;
35743;SDS011;21867;52.012;4.324;2023-02-12T09:51:28;10.27;;;9.23;;
35743;SDS011;21867;52.012;4.324;2023-02-12T09:53:59;9.93;;;9.03;;
35743;SDS011;21867;52.012;4.324;2023-02-12T09:56:27;13.90;;;10.10;;
35743;SDS011;21867;52.012;4.324;2023-02-12T09:58:55;12.90;;;10.10;;
35743;SDS011;21867;52.012;4.324;2023-02-12T10:01:25;11.03;;;9.90;;
35743;SDS011;21867;52.012;4.324;2023-02-12T10:03:53;12.13;;;9.73;;
35743;SDS011;21867;52.012;4.324;2023-02-12T10:06:23;11.43;;;10.00;;
35743;SDS011;21867;52.012;4.324;2023-02-12T10:08:56;10.90;;;9.03;;
35743;SDS011;21867;52.012;4.324;2023-02-12T10:11:31;14.23;;;10.13;;
35743;SDS011;21867;52.012;4.324;2023-02-12T10:17:48;16.10;;;11.10;;
35743;SDS011;21867;52.012;4.324;2023-02-12T10:23:12;11.33;;;9.93;;
35743;SDS011;21867;52.012;4.324;2023-02-12T10:25:44;13.03;;;11.63;;
35743;SDS011;21867;52.012;4.324;2023-02-12T10:28:16;13.37;;;11.10;;
35743;SDS011;21867;52.012;4.324;2023-02-12T10:30:47;12.97;;;10.50;;
35743;SDS011;21867;52.012;4.324;2023-02-12T10:33:16;11.83;;;10.17;;
35743;SDS011;21867;52.012;4.324;2023-02-12T10:35:47;12.10;;;10.90;;
35743;SDS011;21867;52.012;4.324;2023-02-12T10:38:16;12.27;;;11.13;;
35743;SDS011;21867;52.012;4.324;2023-02-12T10:40:46;10.90;;;9.80;;
35743;SDS011;21867;52.012;4.324;2023-02-12T10:47:10;10.30;;;9.20;;
35743;SDS011;21867;52.012;4.324;2023-02-12T10:49:41;9.50;;;8.50;;
35743;SDS011;21867;52.012;4.324;2023-02-12T10:52:09;10.10;;;9.10;;
35743;SDS011;21867;52.012;4.324;2023-02-12T10:54:39;10.77;;;8.50;;
35743;SDS011;21867;52.012;4.324;2023-02-12T10:57:13;9.97;;;8.80;;
35743;SDS011;21867;52.012;4.324;2023-02-12T10:59:41;11.83;;;9.00;;
35743;SDS011;21867;52.012;4.324;2023-02-12T11:04:59;9.10;;;8.27;;
35743;SDS011;21867;52.012;4.324;2023-02-12T11:07:27;13.90;;;9.63;;
35743;SDS011;21867;52.012;4.324;2023-02-12T11:09:55;11.90;;;8.93;;
35743;SDS011;21867;52.012;4.324;2023-02-12T11:18:48;11.60;;;10.50;;
35743;SDS011;21867;52.012;4.324;2023-02-12T11:21:23;10.37;;;9.40;;
35743;SDS011;21867;52.012;4.324;2023-02-12T11:23:50;10.07;;;9.00;;
35743;SDS011;21867;52.012;4.324;2023-02-12T11:26:22;11.67;;;10.30;;
35743;SDS011;21867;52.012;4.324;2023-02-12T11:28:51;11.50;;;10.40;;
35743;SDS011;21867;52.012;4.324;2023-02-12T11:34:07;11.13;;;9.87;;
35743;SDS011;21867;52.012;4.324;2023-02-12T11:36:35;13.27;;;10.30;;
35743;SDS011;21867;52.012;4.324;2023-02-12T11:39:04;10.90;;;9.83;;
35743;SDS011;21867;52.012;4.324;2023-02-12T11:48:43;9.60;;;8.60;;
35743;SDS011;21867;52.012;4.324;2023-02-12T11:51:18;9.83;;;8.80;;
35743;SDS011;21867;52.012;4.324;2023-02-12T11:53:46;10.70;;;6.80;;
35743;SDS011;21867;52.012;4.324;2023-02-12T11:56:15;10.07;;;9.00;;
35743;SDS011;21867;52.012;4.324;2023-02-12T11:58:44;12.97;;;10.17;;
35743;SDS011;21867;52.012;4.324;2023-02-12T12:04:02;14.80;;;10.10;;
35743;SDS011;21867;52.012;4.324;2023-02-12T12:06:33;12.53;;;9.77;;
35743;SDS011;21867;52.012;4.324;2023-02-12T12:09:03;10.97;;;8.77;;
35743;SDS011;21867;52.012;4.324;2023-02-12T12:17:59;8.90;;;7.73;;
35743;SDS011;21867;52.012;4.324;2023-02-12T12:20:31;7.63;;;6.90;;
35743;SDS011;21867;52.012;4.324;2023-02-12T12:23:04;10.07;;;8.17;;
35743;SDS011;21867;52.012;4.324;2023-02-12T12:25:34;11.00;;;9.87;;
35743;SDS011;21867;52.012;4.324;2023-02-12T12:28:04;10.50;;;9.37;;
35743;SDS011;21867;52.012;4.324;2023-02-12T12:33:16;11.03;;;9.83;;
35743;SDS011;21867;52.012;4.324;2023-02-12T12:35:48;11.80;;;8.67;;
35743;SDS011;21867;52.012;4.324;2023-02-12T12:38:23;10.10;;;8.90;;
35743;SDS011;21867;52.012;4.324;2023-02-12T12:40:56;10.23;;;8.70;;
35743;SDS011;21867;52.012;4.324;2023-02-12T12:43:25;10.17;;;8.37;;
35743;SDS011;21867;52.012;4.324;2023-02-12T12:46:07;11.97;;;9.43;;
35743;SDS011;21867;52.012;4.324;2023-02-12T12:48:43;14.00;;;8.77;;
35743;SDS011;21867;52.012;4.324;2023-02-12T12:51:17;8.90;;;7.73;;
35743;SDS011;21867;52.012;4.324;2023-02-12T12:53:53;13.10;;;9.83;;
35743;SDS011;21867;52.012;4.324;2023-02-12T12:56:28;9.70;;;8.70;;
35743;SDS011;21867;52.012;4.324;2023-02-12T12:59:15;10.50;;;9.53;;
35743;SDS011;21867;52.012;4.324;2023-02-12T13:01:48;11.00;;;8.73;;
35743;SDS011;21867;52.012;4.324;2023-02-12T13:07:14;10.70;;;9.60;;
35743;SDS011;21867;52.012;4.324;2023-02-12T13:09:48;9.97;;;8.97;;
35743;SDS011;21867;52.012;4.324;2023-02-12T13:12:24;11.00;;;9.90;;
35743;SDS011;21867;52.012;4.324;2023-02-12T13:14:55;10.93;;;9.67;;
35743;SDS011;21867;52.012;4.324;2023-02-12T13:17:24;11.13;;;9.67;;
35743;SDS011;21867;52.012;4.324;2023-02-12T13:19:58;12.83;;;10.73;;
35743;SDS011;21867;52.012;4.324;2023-02-12T13:22:31;14.03;;;12.60;;
35743;SDS011;21867;52.012;4.324;2023-02-12T13:25:05;12.47;;;11.27;;
35743;SDS011;21867;52.012;4.324;2023-02-12T13:27:39;11.00;;;9.50;;
35743;SDS011;21867;52.012;4.324;2023-02-12T13:30:16;11.43;;;10.33;;
35743;SDS011;21867;52.012;4.324;2023-02-12T13:32:44;11.17;;;10.07;;
35743;SDS011;21867;52.012;4.324;2023-02-12T13:35:14;11.77;;;10.67;;
35743;SDS011;21867;52.012;4.324;2023-02-12T13:37:43;11.90;;;10.70;;
35743;SDS011;21867;52.012;4.324;2023-02-12T13:40:14;14.73;;;10.93;;
35743;SDS011;21867;52.012;4.324;2023-02-12T13:42:44;12.97;;;11.77;;
35743;SDS011;21867;52.012;4.324;2023-02-12T13:45:23;12.57;;;11.03;;
35743;SDS011;21867;52.012;4.324;2023-02-12T13:47:54;12.83;;;11.07;;
35743;SDS011;21867;52.012;4.324;2023-02-12T13:50:30;13.83;;;12.43;;
35743;SDS011;21867;52.012;4.324;2023-02-12T13:53:01;14.03;;;12.03;;
35743;SDS011;21867;52.012;4.324;2023-02-12T13:55:32;14.63;;;12.97;;
35743;SDS011;21867;52.012;4.324;2023-02-12T14:00:58;15.63;;;13.47;;
35743;SDS011;21867;52.012;4.324;2023-02-12T14:03:26;14.00;;;12.57;;
35743;SDS011;21867;52.012;4.324;2023-02-12T14:06:10;16.70;;;14.43;;
35743;SDS011;21867;52.012;4.324;2023-02-12T14:08:39;16.27;;;13.93;;
35743;SDS011;21867;52.012;4.324;2023-02-12T14:11:08;16.80;;;14.87;;
35743;SDS011;21867;52.012;4.324;2023-02-12T14:13:44;14.80;;;12.10;;
35743;SDS011;21867;52.012;4.324;2023-02-12T14:16:22;10.97;;;9.43;;
35743;SDS011;21867;52.012;4.324;2023-02-12T14:21:47;11.83;;;10.00;;
35743;SDS011;21867;52.012;4.324;2023-02-12T14:24:39;10.93;;;9.83;;
35743;SDS011;21867;52.012;4.324;2023-02-12T14:27:18;11.80;;;9.50;;
35743;SDS011;21867;52.012;4.324;2023-02-12T14:29:58;9.50;;;8.50;;
35743;SDS011;21867;52.012;4.324;2023-02-12T14:35:31;10.83;;;9.73;;
35743;SDS011;21867;52.012;4.324;2023-02-12T14:37:59;15.30;;;12.70;;
35743;SDS011;21867;52.012;4.324;2023-02-12T14:43:23;12.73;;;11.03;;
35743;SDS011;21867;52.012;4.324;2023-02-12T14:48:45;17.33;;;14.53;;
35743;SDS011;21867;52.012;4.324;2023-02-12T14:51:15;17.83;;;16.00;;
35743;SDS011;21867;52.012;4.324;2023-02-12T14:53:43;18.90;;;16.03;;
35743;SDS011;21867;52.012;4.324;2023-02-12T14:56:12;17.30;;;15.40;;
35743;SDS011;21867;52.012;4.324;2023-02-12T14:58:42;14.10;;;12.80;;
35743;SDS011;21867;52.012;4.324;2023-02-12T15:01:17;17.07;;;15.27;;
35743;SDS011;21867;52.012;4.324;2023-02-12T15:04:11;23.57;;;17.40;;
35743;SDS011;21867;52.012;4.324;2023-02-12T15:06:52;18.10;;;15.33;;
35743;SDS011;21867;52.012;4.324;2023-02-12T15:09:24;15.23;;;13.10;;
35743;SDS011;21867;52.012;4.324;2023-02-12T15:11:54;18.90;;;16.90;;
35743;SDS011;21867;52.012;4.324;2023-02-12T15:14:27;20.37;;;17.93;;
35743;SDS011;21867;52.012;4.324;2023-02-12T15:16:57;16.13;;;13.77;;
35743;SDS011;21867;52.012;4.324;2023-02-12T15:19:32;21.27;;;18.53;;
35743;SDS011;21867;52.012;4.324;2023-02-12T15:22:00;20.23;;;17.73;;
35743;SDS011;21867;52.012;4.324;2023-02-12T15:24:27;20.53;;;17.93;;
35743;SDS011;21867;52.012;4.324;2023-02-12T15:26:56;21.27;;;17.57;;
35743;SDS011;21867;52.012;4.324;2023-02-12T15:29:27;18.93;;;16.73;;
35743;SDS011;21867;52.012;4.324;2023-02-12T15:31:58;19.13;;;16.57;;
35743;SDS011;21867;52.012;4.324;2023-02-12T15:34:27;23.27;;;18.73;;
35743;SDS011;21867;52.012;4.324;2023-02-12T15:36:57;20.10;;;17.77;;
35743;SDS011;21867;52.012;4.324;2023-02-12T15:39:25;18.20;;;15.50;;
35743;SDS011;21867;52.012;4.324;2023-02-12T15:41:57;22.00;;;18.40;;
35743;SDS011;21867;52.012;4.324;2023-02-12T15:44:30;21.13;;;18.73;;
35743;SDS011;21867;52.012;4.324;2023-02-12T15:47:02;21.03;;;17.27;;
35743;SDS011;21867;52.012;4.324;2023-02-12T15:49:31;20.80;;;17.63;;
35743;SDS011;21867;52.012;4.324;2023-02-12T15:51:59;27.43;;;22.33;;
35743;SDS011;21867;52.012;4.324;2023-02-12T15:54:27;23.90;;;17.97;;
35743;SDS011;21867;52.012;4.324;2023-02-12T15:56:55;24.60;;;17.23;;
35743;SDS011;21867;52.012;4.324;2023-02-12T15:59:23;22.77;;;17.53;;
35743;SDS011;21867;52.012;4.324;2023-02-12T16:01:57;20.30;;;17.10;;
35743;SDS011;21867;52.012;4.324;2023-02-12T16:04:26;23.13;;;17.83;;
35743;SDS011;21867;52.012;4.324;2023-02-12T16:06:55;24.67;;;19.37;;
35743;SDS011;21867;52.012;4.324;2023-02-12T16:09:25;18.27;;;14.23;;
35743;SDS011;21867;52.012;4.324;2023-02-12T16:11:53;20.30;;;16.87;;
35743;SDS011;21867;52.012;4.324;2023-02-12T16:14:22;20.13;;;15.77;;
35743;SDS011;21867;52.012;4.324;2023-02-12T16:16:51;20.83;;;17.40;;
35743;SDS011;21867;52.012;4.324;2023-02-12T16:19:21;21.27;;;18.23;;
35743;SDS011;21867;52.012;4.324;2023-02-12T16:21:49;22.30;;;17.17;;
35743;SDS011;21867;52.012;4.324;2023-02-12T16:24:23;19.50;;;16.30;;
35743;SDS011;21867;52.012;4.324;2023-02-12T16:26:51;20.40;;;17.07;;
35743;SDS011;21867;52.012;4.324;2023-02-12T16:29:18;22.83;;;17.70;;
35743;SDS011;21867;52.012;4.324;2023-02-12T16:31:54;21.87;;;17.07;;
35743;SDS011;21867;52.012;4.324;2023-02-12T16:34:32;22.60;;;18.17;;
35743;SDS011;21867;52.012;4.324;2023-02-12T16:36:59;25.60;;;18.40;;
35743;SDS011;21867;52.012;4.324;2023-02-12T16:42:14;25.20;;;17.77;;
35743;SDS011;21867;52.012;4.324;2023-02-12T16:44:41;23.20;;;18.33;;
35743;SDS011;21867;52.012;4.324;2023-02-12T16:47:12;23.77;;;18.23;;
35743;SDS011;21867;52.012;4.324;2023-02-12T16:49:52;22.10;;;17.80;;
35743;SDS011;21867;52.012;4.324;2023-02-12T16:52:24;28.20;;;18.93;;
35743;SDS011;21867;52.012;4.324;2023-02-12T16:54:52;21.17;;;17.90;;
35743;SDS011;21867;52.012;4.324;2023-02-12T16:57:19;23.43;;;19.00;;
35743;SDS011;21867;52.012;4.324;2023-02-12T16:59:47;19.30;;;16.40;;
35743;SDS011;21867;52.012;4.324;2023-02-12T17:02:14;23.97;;;18.20;;
35743;SDS011;21867;52.012;4.324;2023-02-12T17:04:41;23.83;;;16.80;;
35743;SDS011;21867;52.012;4.324;2023-02-12T17:07:15;22.37;;;18.20;;
35743;SDS011;21867;52.012;4.324;2023-02-12T17:09:43;22.27;;;18.13;;
35743;SDS011;21867;52.012;4.324;2023-02-12T17:12:11;24.60;;;18.40;;
35743;SDS011;21867;52.012;4.324;2023-02-12T17:14:38;28.67;;;19.90;;
35743;SDS011;21867;52.012;4.324;2023-02-12T17:17:05;25.17;;;18.73;;
35743;SDS011;21867;52.012;4.324;2023-02-12T17:19:33;26.40;;;20.63;;